Denison, Kansas
Current Conditions -  °F | °C
As of 3:53 PM on Monday 20 Oct 2014 (Local Time) from KTOP Reporting Station
Clear Clear  
Wind Chill: 76°   Ceiling: Unl
Heat Index: 76°   Visibility: 10mi
Dew Point: 46°   Wind: 9mph
Humidity: 35%   Direction: 10°N
Pressure: 30.03"   Gusts: NA
Location:  39.39°N, 95.63°W
Report Text: KTOP 202053Z 01008KT 10SM CLR 24/08 A3003 RMK AO2 SLP165 T02440078 56013 $
Loading
Personal Weather Stations






























Interactive Weather Map
Tropical Storm Tracking
New forecast layout! Learn more

10-Day Weather Forecast

Advertisements
Track Severe Weather on mobile